createdAt,value
2023-04-15T00:00:58.493Z,1.02
2023-04-15T00:03:25.601Z,1.10
2023-04-15T00:05:52.784Z,1.20
2023-04-15T00:08:20.504Z,0.98
2023-04-15T00:10:47.206Z,1.20
2023-04-15T00:13:13.814Z,1.10
2023-04-15T00:15:40.397Z,1.08
2023-04-15T00:18:08.332Z,1.10
2023-04-15T00:20:35.515Z,0.93
2023-04-15T00:23:02.648Z,1.10
2023-04-15T00:25:29.398Z,0.93
2023-04-15T00:27:56.033Z,1.05
2023-04-15T00:30:24.094Z,1.20
2023-04-15T00:32:50.886Z,0.95
2023-04-15T00:35:17.656Z,1.10
2023-04-15T00:37:46.024Z,1.37
2023-04-15T00:40:13.734Z,1.10
2023-04-15T00:42:40.867Z,1.10
2023-04-15T00:45:08.887Z,1.20
2023-04-15T00:47:36.713Z,0.80
2023-04-15T00:50:04.046Z,1.30
2023-04-15T00:52:31.129Z,1.15
2023-04-15T00:54:57.763Z,1.20
2023-04-15T00:57:24.484Z,1.30
2023-04-15T00:59:51.349Z,1.20
2023-04-15T01:02:18.121Z,1.10
2023-04-15T01:04:44.909Z,1.17
2023-04-15T01:07:11.572Z,1.00
2023-04-15T01:09:38.212Z,0.98
2023-04-15T01:12:05.128Z,1.05
2023-04-15T01:14:32.008Z,1.10
2023-04-15T01:16:58.770Z,0.95
2023-04-15T01:19:25.373Z,1.10
2023-04-15T01:21:52.670Z,1.00
2023-04-15T01:24:19.438Z,1.02
2023-04-15T01:26:46.847Z,1.00
2023-04-15T01:29:13.472Z,1.23
2023-04-15T01:31:40.148Z,1.05
2023-04-15T01:34:07.035Z,1.10
2023-04-15T01:36:34.225Z,1.10
2023-04-15T01:39:01.120Z,0.90
2023-04-15T01:41:28.060Z,1.08
2023-04-15T01:43:54.994Z,1.00
2023-04-15T01:46:21.620Z,1.12
2023-04-15T01:48:48.301Z,1.27
2023-04-15T01:51:14.920Z,1.05
2023-04-15T01:53:41.553Z,1.40
2023-04-15T01:56:08.360Z,1.12
2023-04-15T01:58:35.014Z,1.20
2023-04-15T02:01:03.090Z,1.10
2023-04-15T02:03:29.966Z,1.55
2023-04-15T02:05:56.827Z,1.30
2023-04-15T02:08:23.734Z,1.27
2023-04-15T02:10:50.582Z,1.15
2023-04-15T02:13:17.260Z,1.45
2023-04-15T02:15:50.755Z,1.10
2023-04-15T02:18:17.505Z,1.10
2023-04-15T02:20:44.124Z,1.30
2023-04-15T02:23:11.279Z,1.20
2023-04-15T02:25:39.117Z,0.90
2023-04-15T02:28:06.429Z,1.33
2023-04-15T02:30:33.896Z,1.30
2023-04-15T02:33:01.098Z,1.10
2023-04-15T02:35:27.774Z,1.12
2023-04-15T02:37:54.415Z,1.20
2023-04-15T02:40:21.041Z,0.93
2023-04-15T02:42:47.731Z,1.10
2023-04-15T02:45:14.384Z,1.00
2023-04-15T02:47:41.669Z,1.08
2023-04-15T02:50:09.586Z,1.10
2023-04-15T02:52:36.248Z,1.10
2023-04-15T02:55:04.445Z,1.17
2023-04-15T02:57:31.184Z,1.10
2023-04-15T02:59:57.778Z,1.15
2023-04-15T03:02:24.735Z,1.00
2023-04-15T03:04:51.912Z,1.23
2023-04-15T03:07:18.616Z,1.20
2023-04-15T03:09:46.107Z,1.10
2023-04-15T03:12:12.798Z,1.12
2023-04-15T03:14:39.435Z,1.27
2023-04-15T03:17:06.038Z,1.27
2023-04-15T03:19:32.643Z,1.10
2023-04-15T03:21:59.299Z,1.20
2023-04-15T03:24:26.300Z,1.42
2023-04-15T03:26:52.927Z,1.45
2023-04-15T03:29:19.600Z,1.20
2023-04-15T03:31:46.237Z,1.27
2023-04-15T03:34:12.874Z,1.10
2023-04-15T03:36:39.617Z,1.40
2023-04-15T03:39:06.274Z,1.33
2023-04-15T03:41:33.070Z,1.10
2023-04-15T03:43:59.737Z,1.10
2023-04-15T03:46:26.802Z,1.42
2023-04-15T03:48:53.640Z,1.20
2023-04-15T03:51:20.641Z,1.20
2023-04-15T03:53:47.339Z,1.30
2023-04-15T03:56:13.951Z,1.17
2023-04-15T03:58:40.582Z,1.40
2023-04-15T04:01:07.292Z,1.20
2023-04-15T04:03:33.999Z,1.42
2023-04-15T04:06:00.949Z,1.20
2023-04-15T04:08:27.618Z,1.20
2023-04-15T04:10:54.277Z,1.30
2023-04-15T04:13:21.066Z,1.15
2023-04-15T04:15:47.753Z,1.25
2023-04-15T04:18:14.325Z,0.90
2023-04-15T04:20:41.409Z,1.08
2023-04-15T04:23:08.054Z,1.08
2023-04-15T04:25:34.686Z,1.45
2023-04-15T04:28:01.336Z,1.20
2023-04-15T04:30:28.076Z,1.23
2023-04-15T04:32:54.729Z,0.93
2023-04-15T04:35:21.959Z,1.08
2023-04-15T04:37:48.701Z,0.93
2023-04-15T04:40:15.658Z,1.25
2023-04-15T04:42:42.329Z,1.40
2023-04-15T04:45:09.324Z,1.10
2023-04-15T04:47:35.923Z,1.10
2023-04-15T04:50:02.741Z,0.90
2023-04-15T04:52:29.357Z,1.10
2023-04-15T04:54:56.239Z,1.02
2023-04-15T04:57:23.007Z,1.30
2023-04-15T04:59:49.597Z,1.15
2023-04-15T05:02:16.354Z,0.98
2023-04-15T05:04:43.075Z,0.82
2023-04-15T05:07:09.744Z,1.05
2023-04-15T05:09:36.890Z,1.10
2023-04-15T05:12:06.774Z,1.15
2023-04-15T05:14:33.511Z,1.02
2023-04-15T05:17:00.180Z,1.05
2023-04-15T05:19:26.813Z,1.12
2023-04-15T05:21:53.436Z,1.30
2023-04-15T05:24:20.115Z,1.20
2023-04-15T05:26:47.088Z,1.20
2023-04-15T05:29:13.689Z,0.85
2023-04-15T05:31:40.797Z,1.25
2023-04-15T05:34:07.391Z,1.10
2023-04-15T05:36:33.998Z,0.93
2023-04-15T05:39:00.871Z,1.30
2023-04-15T05:41:27.682Z,1.00
2023-04-15T05:43:54.270Z,0.85
2023-04-15T05:46:20.956Z,0.90
2023-04-15T05:48:47.596Z,0.95
2023-04-15T05:51:14.287Z,1.10
2023-04-15T05:53:41.731Z,1.15
2023-04-15T05:56:08.348Z,1.00
2023-04-15T05:58:34.922Z,1.15
2023-04-15T06:01:01.581Z,1.10
2023-04-15T06:03:28.664Z,1.02
2023-04-15T06:05:55.552Z,1.00
2023-04-15T06:08:22.306Z,1.10
2023-04-15T06:10:48.979Z,1.17
2023-04-15T06:13:16.881Z,1.00
2023-04-15T06:15:43.489Z,0.93
2023-04-15T06:18:10.076Z,0.98
2023-04-15T06:20:36.816Z,0.95
2023-04-15T06:23:03.390Z,0.88
2023-04-15T06:25:29.969Z,0.93
2023-04-15T06:27:56.608Z,0.95
2023-04-15T06:30:24.460Z,0.90
2023-04-15T06:32:51.224Z,1.60
2023-04-15T06:35:18.036Z,1.00
2023-04-15T06:37:44.624Z,1.00
2023-04-15T06:40:11.508Z,0.80
2023-04-15T06:42:38.423Z,1.00
2023-04-15T06:45:05.667Z,1.00
2023-04-15T06:47:32.341Z,1.15
2023-04-15T06:49:59.030Z,0.88
2023-04-15T06:52:26.139Z,1.20
2023-04-15T06:54:52.708Z,1.20
2023-04-15T06:57:19.290Z,0.98
2023-04-15T06:59:46.168Z,1.10
2023-04-15T07:02:12.873Z,1.23
2023-04-15T07:04:40.391Z,1.15
2023-04-15T07:07:10.000Z,0.75
2023-04-15T07:09:36.702Z,0.98
2023-04-15T07:12:03.475Z,0.80
2023-04-15T07:14:30.104Z,1.12
2023-04-15T07:16:57.673Z,1.00
2023-04-15T07:19:24.427Z,1.02
2023-04-15T07:21:51.268Z,0.95
2023-04-15T07:24:19.704Z,0.90
2023-04-15T07:26:46.593Z,0.93
2023-04-15T07:29:13.275Z,0.88
2023-04-15T07:31:40.710Z,1.23
2023-04-15T07:34:07.321Z,1.15
2023-04-15T07:36:34.336Z,1.25
2023-04-15T07:39:03.435Z,1.40
2023-04-15T07:41:31.032Z,1.08
2023-04-15T07:43:57.639Z,1.30
2023-04-15T07:46:27.160Z,1.23
2023-04-15T07:48:54.143Z,1.00
2023-04-15T07:51:21.292Z,0.80
2023-04-15T07:53:49.475Z,0.90
2023-04-15T07:56:16.306Z,0.88
2023-04-15T07:58:43.601Z,0.93
2023-04-15T08:01:10.166Z,1.12
2023-04-15T08:03:37.162Z,1.00
2023-04-15T08:06:04.060Z,0.80
2023-04-15T08:08:31.157Z,0.98
2023-04-15T08:10:58.572Z,0.80
2023-04-15T08:13:26.352Z,0.88
2023-04-15T08:16:14.395Z,0.77
2023-04-15T08:18:41.286Z,0.85
2023-04-15T08:21:08.545Z,1.00
2023-04-15T08:23:35.138Z,1.00
2023-04-15T08:26:02.166Z,1.02
2023-04-15T08:28:28.800Z,0.85
2023-04-15T08:30:55.509Z,0.70
2023-04-15T08:33:22.088Z,0.65
2023-04-15T08:35:49.289Z,0.65
2023-04-15T08:38:15.930Z,0.80
2023-04-15T08:40:44.250Z,0.80
2023-04-15T08:43:13.030Z,0.70
2023-04-15T08:45:39.955Z,0.70
2023-04-15T08:48:06.802Z,0.82
2023-04-15T08:50:33.412Z,0.70
2023-04-15T08:53:00.175Z,0.80
2023-04-15T08:55:28.650Z,0.82
2023-04-15T08:57:55.298Z,0.60
2023-04-15T09:00:22.812Z,0.75
2023-04-15T09:02:49.550Z,0.62
2023-04-15T09:05:17.486Z,0.55
2023-04-15T09:07:44.177Z,0.70
2023-04-15T09:10:11.232Z,0.60
2023-04-15T09:12:37.851Z,0.70
2023-04-15T09:15:04.813Z,0.70
2023-04-15T09:17:34.793Z,0.55
2023-04-15T09:20:11.318Z,0.90
2023-04-15T09:22:38.137Z,0.50
2023-04-15T09:25:05.323Z,0.50
2023-04-15T09:27:32.035Z,0.62
2023-04-15T09:29:58.771Z,0.40
2023-04-15T09:32:25.731Z,0.70
2023-04-15T09:34:52.389Z,0.70
2023-04-15T09:37:31.670Z,0.52
2023-04-15T09:39:58.791Z,0.70
2023-04-15T09:42:26.834Z,0.68
2023-04-15T09:44:53.635Z,0.70
2023-04-15T09:47:30.588Z,0.60
2023-04-15T09:49:58.451Z,0.60
2023-04-15T09:52:25.226Z,0.80
2023-04-15T09:54:53.726Z,0.80
2023-04-15T09:57:20.386Z,0.70
2023-04-15T09:59:46.976Z,0.75
2023-04-15T10:02:13.779Z,0.65
2023-04-15T10:04:41.494Z,0.70
2023-04-15T10:07:12.262Z,1.10
2023-04-15T10:09:39.230Z,0.90
2023-04-15T10:12:05.934Z,0.88
2023-04-15T10:14:34.862Z,0.62
2023-04-15T10:17:03.565Z,0.70
2023-04-15T10:19:31.783Z,0.50
2023-04-15T10:21:59.077Z,0.50
2023-04-15T10:24:25.812Z,0.70
2023-04-15T10:26:52.832Z,0.70
2023-04-15T10:29:19.480Z,0.50
2023-04-15T10:31:46.429Z,0.70
2023-04-15T10:34:13.133Z,0.62
2023-04-15T10:36:39.713Z,0.80
2023-04-15T10:39:34.525Z,0.70
2023-04-15T10:42:33.811Z,0.60
2023-04-15T10:45:00.513Z,0.70
2023-04-15T10:47:27.325Z,0.80
2023-04-15T10:50:01.191Z,0.60
2023-04-15T10:52:28.568Z,0.70
2023-04-15T10:55:10.508Z,1.12
2023-04-15T10:57:40.739Z,0.62
2023-04-15T11:00:16.676Z,0.73
2023-04-15T11:05:19.225Z,0.70
2023-04-15T11:08:00.974Z,0.60
2023-04-15T11:10:31.119Z,0.70
2023-04-15T11:12:59.015Z,0.60
2023-04-15T11:15:33.057Z,0.40
2023-04-15T11:18:16.547Z,0.55
2023-04-15T11:20:47.330Z,0.60
2023-04-15T11:23:28.090Z,0.62
2023-04-15T11:25:59.422Z,0.50
2023-04-15T11:28:28.010Z,0.60
2023-04-15T11:30:55.660Z,0.60
2023-04-15T11:33:22.772Z,0.50
2023-04-15T11:35:49.635Z,0.60
2023-04-15T11:38:16.796Z,0.70
2023-04-15T11:40:46.194Z,0.50
2023-04-15T11:43:20.317Z,0.57
2023-04-15T11:45:56.904Z,0.40
2023-04-15T11:48:27.792Z,0.40
2023-04-15T11:51:13.025Z,0.52
2023-04-15T11:53:47.561Z,0.45
2023-04-15T11:56:21.944Z,0.40
2023-04-15T11:58:50.900Z,0.35
2023-04-15T12:01:17.800Z,0.40
2023-04-15T12:03:48.403Z,0.50
2023-04-15T12:06:19.385Z,0.45
2023-04-15T12:08:55.564Z,0.55
2023-04-15T12:11:31.336Z,0.40
2023-04-15T12:13:58.036Z,0.50
2023-04-15T12:16:24.779Z,0.37
2023-04-15T12:18:52.410Z,0.50
2023-04-15T12:21:23.081Z,0.60
2023-04-15T12:23:53.729Z,0.40
2023-04-15T12:26:35.099Z,0.40
2023-04-15T12:29:11.186Z,0.40
2023-04-15T12:31:39.127Z,0.55
2023-04-15T12:34:08.019Z,0.52
2023-04-15T12:36:37.230Z,0.40
2023-04-15T12:39:04.912Z,0.50
2023-04-15T12:41:32.152Z,0.37
2023-04-15T12:43:58.790Z,0.40
2023-04-15T12:46:25.932Z,0.30
2023-04-15T12:48:53.370Z,0.43
2023-04-15T12:51:21.787Z,0.55
2023-04-15T12:53:49.719Z,0.32
2023-04-15T12:56:17.066Z,0.57
2023-04-15T12:58:43.844Z,0.40
2023-04-15T13:01:11.302Z,0.50
2023-04-15T13:03:38.133Z,0.50
2023-04-15T13:06:05.393Z,0.40
2023-04-15T13:08:32.338Z,0.50
2023-04-15T13:10:58.967Z,0.45
2023-04-15T13:13:27.843Z,0.50
2023-04-15T13:15:54.543Z,0.60
2023-04-15T13:18:21.336Z,0.60
2023-04-15T13:20:47.991Z,0.30
2023-04-15T13:23:15.489Z,0.60
2023-04-15T13:25:42.548Z,0.55
2023-04-15T13:28:12.566Z,0.57
2023-04-15T13:30:39.331Z,0.55
2023-04-15T13:33:06.344Z,0.40
2023-04-15T13:35:33.145Z,0.50
2023-04-15T13:37:59.780Z,0.37
2023-04-15T13:40:26.377Z,0.40
2023-04-15T13:42:53.320Z,0.50
2023-04-15T13:45:19.983Z,0.40
2023-04-15T13:47:49.218Z,0.40
2023-04-15T13:50:15.992Z,0.45
2023-04-15T13:52:42.652Z,0.37
2023-04-15T13:55:19.715Z,0.73
2023-04-15T13:57:47.539Z,0.30
2023-04-15T14:00:14.693Z,0.40
2023-04-15T14:02:42.411Z,0.50
2023-04-15T14:05:10.054Z,0.52
2023-04-15T14:07:36.798Z,0.50
2023-04-15T14:10:06.603Z,0.70
2023-04-15T14:12:33.395Z,0.50
2023-04-15T14:15:00.043Z,0.40
2023-04-15T14:17:26.772Z,0.68
2023-04-15T14:19:53.416Z,0.50
2023-04-15T14:22:20.038Z,0.50
2023-04-15T14:24:48.841Z,0.50
2023-04-15T14:27:16.454Z,0.40
2023-04-15T14:29:43.064Z,0.50
2023-04-15T14:32:12.300Z,0.50
2023-04-15T14:34:39.563Z,0.70
2023-04-15T14:37:06.339Z,0.60
2023-04-15T14:39:32.992Z,0.40
2023-04-15T14:41:59.941Z,0.70
2023-04-15T14:44:26.516Z,0.68
2023-04-15T14:46:53.230Z,0.60
2023-04-15T14:49:19.888Z,0.60
2023-04-15T14:51:46.635Z,0.70
2023-04-15T14:54:13.257Z,0.55
2023-04-15T14:56:39.895Z,0.50
2023-04-15T14:59:06.645Z,0.50
2023-04-15T15:01:34.180Z,0.40
2023-04-15T15:04:01.014Z,0.60
2023-04-15T15:06:27.963Z,0.60
2023-04-15T15:08:54.579Z,0.62
2023-04-15T15:11:21.406Z,0.50
2023-04-15T15:13:48.199Z,0.50
2023-04-15T15:16:14.901Z,0.47
2023-04-15T15:18:41.566Z,0.55
2023-04-15T15:21:08.204Z,0.52
2023-04-15T15:23:34.886Z,0.50
2023-04-15T15:26:01.606Z,0.50
2023-04-15T15:28:28.251Z,0.47
2023-04-15T15:30:55.099Z,0.40
2023-04-15T15:33:22.050Z,0.50
2023-04-15T15:35:48.664Z,0.40
2023-04-15T15:38:15.676Z,0.50
2023-04-15T15:40:42.445Z,0.43
2023-04-15T15:43:09.071Z,0.60
2023-04-15T15:45:35.841Z,0.40
2023-04-15T15:48:02.714Z,0.60
2023-04-15T15:50:29.424Z,0.55
2023-04-15T15:52:56.150Z,0.40
2023-04-15T15:55:25.302Z,0.40
2023-04-15T15:57:51.985Z,0.60
2023-04-15T16:00:18.722Z,0.50
2023-04-15T16:05:15.816Z,0.40
2023-04-15T16:07:42.500Z,0.68
2023-04-15T16:10:09.496Z,0.50
2023-04-15T16:12:36.111Z,0.47
2023-04-15T16:15:03.846Z,0.50
2023-04-15T16:17:30.563Z,0.55
2023-04-15T16:20:01.281Z,0.50
2023-04-15T16:22:28.154Z,0.52
2023-04-15T16:24:54.853Z,0.40
2023-04-15T16:27:21.686Z,0.40
2023-04-15T16:29:48.296Z,0.55
2023-04-15T16:32:15.077Z,0.60
2023-04-15T16:34:41.749Z,0.50
2023-04-15T16:37:08.340Z,0.47
2023-04-15T16:39:35.048Z,0.70
2023-04-15T16:42:02.606Z,0.45
2023-04-15T16:44:29.301Z,0.47
2023-04-15T16:46:56.635Z,0.60
2023-04-15T16:49:23.278Z,0.40
2023-04-15T16:51:49.875Z,0.43
2023-04-15T16:54:16.453Z,0.50
2023-04-15T16:56:43.049Z,1.02
2023-04-15T16:59:09.672Z,0.50
2023-04-15T17:01:39.599Z,0.40
2023-04-15T17:04:06.588Z,0.50
2023-04-15T17:06:33.274Z,0.50
2023-04-15T17:08:59.920Z,0.43
2023-04-15T17:11:27.950Z,0.62
2023-04-15T17:13:54.604Z,0.47
2023-04-15T17:16:21.373Z,0.65
2023-04-15T17:18:50.222Z,0.60
2023-04-15T17:21:17.565Z,0.60
2023-04-15T17:23:44.239Z,0.60
2023-04-15T17:26:11.129Z,0.70
2023-04-15T17:28:38.047Z,0.55
2023-04-15T17:31:04.940Z,0.50
2023-04-15T17:33:55.896Z,0.60
2023-04-15T17:36:18.308Z,0.75
2023-04-15T17:38:45.528Z,0.57
2023-04-15T17:41:12.225Z,0.60
2023-04-15T17:43:39.018Z,0.50
2023-04-15T17:46:06.947Z,0.52
2023-04-15T17:48:34.111Z,0.70
2023-04-15T17:51:03.808Z,0.70
2023-04-15T17:53:30.478Z,0.60
2023-04-15T17:55:57.778Z,0.62
2023-04-15T17:58:24.472Z,0.60
2023-04-15T18:00:51.125Z,0.50
2023-04-15T18:03:17.884Z,0.60
2023-04-15T18:05:44.654Z,0.60
2023-04-15T18:08:11.543Z,0.60
2023-04-15T18:10:38.328Z,0.60
2023-04-15T18:13:05.081Z,0.62
2023-04-15T18:15:31.776Z,0.52
2023-04-15T18:17:58.997Z,0.60
2023-04-15T18:20:25.640Z,0.80
2023-04-15T18:22:52.675Z,0.60
2023-04-15T18:25:19.334Z,0.70
2023-04-15T18:27:46.045Z,0.75
2023-04-15T18:30:13.064Z,0.60
2023-04-15T18:32:39.740Z,0.57
2023-04-15T18:35:06.789Z,0.70
2023-04-15T18:37:33.432Z,0.50
2023-04-15T18:40:00.117Z,0.60
2023-04-15T18:42:26.799Z,0.60
2023-04-15T18:44:53.832Z,0.70
2023-04-15T18:47:20.509Z,0.60
2023-04-15T18:49:47.106Z,0.65
2023-04-15T18:52:13.740Z,0.70
2023-04-15T18:54:40.403Z,0.60
2023-04-15T18:57:07.054Z,0.70
2023-04-15T18:59:34.188Z,0.70
2023-04-15T19:02:01.433Z,0.55
2023-04-15T19:04:30.974Z,0.70
2023-04-15T19:06:59.091Z,0.73
2023-04-15T19:09:26.029Z,0.80
2023-04-15T19:11:52.722Z,0.70
2023-04-15T19:14:19.450Z,0.73
2023-04-15T19:16:46.114Z,0.80
2023-04-15T19:19:16.589Z,0.73
2023-04-15T19:21:43.361Z,0.75
2023-04-15T19:24:10.050Z,0.70
2023-04-15T19:26:37.016Z,0.80
2023-04-15T19:29:03.933Z,0.70
2023-04-15T19:31:30.860Z,0.93
2023-04-15T19:34:00.160Z,0.70
2023-04-15T19:36:28.502Z,0.88
2023-04-15T19:38:55.273Z,1.00
2023-04-15T19:41:24.417Z,0.77
2023-04-15T19:43:51.337Z,0.75
2023-04-15T19:46:18.163Z,0.70
2023-04-15T19:48:44.792Z,0.95
2023-04-15T19:51:11.693Z,0.90
2023-04-15T19:53:38.313Z,0.80
2023-04-15T19:56:05.060Z,0.80
2023-04-15T19:58:32.474Z,0.73
2023-04-15T20:01:00.492Z,0.82
2023-04-15T20:03:27.166Z,0.70
2023-04-15T20:05:53.902Z,0.80
2023-04-15T20:08:20.728Z,0.90
2023-04-15T20:10:47.380Z,1.02
2023-04-15T20:13:13.973Z,1.05
2023-04-15T20:15:40.623Z,0.90
2023-04-15T20:18:07.220Z,1.12
2023-04-15T20:20:34.574Z,1.05
2023-04-15T20:23:01.147Z,1.05
2023-04-15T20:25:27.830Z,0.90
2023-04-15T20:27:54.516Z,1.00
2023-04-15T20:30:21.201Z,1.05
2023-04-15T20:32:47.924Z,0.80
2023-04-15T20:35:14.577Z,1.17
2023-04-15T20:37:43.148Z,1.00
2023-04-15T20:40:10.297Z,0.88
2023-04-15T20:42:36.972Z,0.85
2023-04-15T20:45:03.948Z,1.00
2023-04-15T20:47:30.756Z,1.12
2023-04-15T20:49:57.520Z,1.08
2023-04-15T20:52:24.204Z,1.08
2023-04-15T20:54:52.107Z,0.82
2023-04-15T20:57:20.169Z,0.80
2023-04-15T20:59:46.857Z,0.95
2023-04-15T21:02:13.556Z,1.25
2023-04-15T21:04:40.334Z,0.88
2023-04-15T21:07:06.941Z,1.27
2023-04-15T21:09:33.617Z,1.23
2023-04-15T21:12:02.129Z,1.02
2023-04-15T21:14:29.220Z,0.90
2023-04-15T21:16:57.212Z,0.90
2023-04-15T21:19:23.877Z,1.45
2023-04-15T21:21:50.531Z,1.20
2023-04-15T21:24:17.196Z,1.15
2023-04-15T21:26:43.852Z,1.20
2023-04-15T21:29:11.869Z,1.10
2023-04-15T21:31:38.913Z,1.00
2023-04-15T21:34:05.763Z,1.30
2023-04-15T21:36:32.627Z,1.30
2023-04-15T21:38:59.637Z,1.05
2023-04-15T21:41:26.734Z,1.25
2023-04-15T21:43:53.651Z,1.30
2023-04-15T21:46:24.572Z,0.90
2023-04-15T21:48:55.113Z,1.05
2023-04-15T21:51:21.867Z,1.20
2023-04-15T21:53:48.579Z,1.10
2023-04-15T21:56:15.241Z,1.17
2023-04-15T21:58:41.976Z,1.20
2023-04-15T22:01:08.617Z,1.00
2023-04-15T22:03:35.521Z,1.60
2023-04-15T22:06:03.089Z,1.05
2023-04-15T22:08:32.088Z,1.30
2023-04-15T22:11:00.643Z,1.55
2023-04-15T22:13:27.276Z,1.40
2023-04-15T22:15:53.914Z,1.65
2023-04-15T22:18:20.648Z,1.30
2023-04-15T22:20:47.233Z,0.90
2023-04-15T22:23:17.449Z,1.30
2023-04-15T22:25:44.263Z,1.30
2023-04-15T22:28:10.962Z,1.40
2023-04-15T22:30:41.409Z,1.40
2023-04-15T22:33:08.402Z,1.37
2023-04-15T22:35:36.207Z,1.25
2023-04-15T22:38:03.656Z,1.60
2023-04-15T22:40:30.324Z,1.58
2023-04-15T22:42:56.991Z,1.48
2023-04-15T22:45:23.649Z,1.20
2023-04-15T22:47:50.585Z,1.40
2023-04-15T22:50:17.259Z,1.60
2023-04-15T22:52:46.204Z,1.60
2023-04-15T22:55:12.977Z,1.42
2023-04-15T22:57:39.596Z,1.40
2023-04-15T23:00:07.468Z,1.50
2023-04-15T23:02:34.955Z,1.50
2023-04-15T23:05:04.549Z,1.50
2023-04-15T23:07:39.840Z,1.83
2023-04-15T23:10:08.036Z,1.65
2023-04-15T23:12:34.887Z,1.73
2023-04-15T23:15:01.602Z,1.95
2023-04-15T23:17:28.246Z,1.65
2023-04-15T23:19:54.873Z,1.77
2023-04-15T23:22:21.517Z,1.70
2023-04-15T23:24:48.166Z,1.70
2023-04-15T23:27:14.739Z,1.90
2023-04-15T23:29:41.675Z,1.75
2023-04-15T23:32:08.305Z,1.73
2023-04-15T23:34:34.909Z,1.85
2023-04-15T23:37:01.523Z,1.90
2023-04-15T23:39:28.189Z,2.00
2023-04-15T23:41:54.808Z,1.92
2023-04-15T23:44:21.553Z,1.92
2023-04-15T23:46:48.254Z,2.15
2023-04-15T23:49:14.957Z,2.00
2023-04-15T23:51:41.562Z,2.10
2023-04-15T23:54:08.153Z,2.30
2023-04-15T23:56:34.758Z,1.92
2023-04-15T23:59:02.736Z,2.10
